sensor_id;sensor_type;location;lat;lon;timestamp;temperature;humidity
947;DHT22;460;48.734;9.152;2023-08-20T00:00:32;21.60;99.90
947;DHT22;460;48.734;9.152;2023-08-20T00:03:03;21.50;99.90
947;DHT22;460;48.734;9.152;2023-08-20T00:05:31;21.40;99.90
947;DHT22;460;48.734;9.152;2023-08-20T00:07:58;21.40;99.90
947;DHT22;460;48.734;9.152;2023-08-20T00:10:26;21.40;99.90
947;DHT22;460;48.734;9.152;2023-08-20T00:12:53;21.40;99.90
947;DHT22;460;48.734;9.152;2023-08-20T00:15:20;21.50;99.90
947;DHT22;460;48.734;9.152;2023-08-20T00:17:52;21.50;99.90
947;DHT22;460;48.734;9.152;2023-08-20T00:20:19;21.50;99.90
947;DHT22;460;48.734;9.152;2023-08-20T00:22:47;21.50;99.90
947;DHT22;460;48.734;9.152;2023-08-20T00:25:16;21.60;99.90
947;DHT22;460;48.734;9.152;2023-08-20T00:27:44;21.50;99.90
947;DHT22;460;48.734;9.152;2023-08-20T00:30:11;21.50;99.90
947;DHT22;460;48.734;9.152;2023-08-20T00:32:38;21.50;99.90
947;DHT22;460;48.734;9.152;2023-08-20T00:35:05;21.50;99.90
947;DHT22;460;48.734;9.152;2023-08-20T00:37:33;21.40;99.90
947;DHT22;460;48.734;9.152;2023-08-20T00:40:00;21.40;99.90
947;DHT22;460;48.734;9.152;2023-08-20T00:42:30;21.40;99.90
947;DHT22;460;48.734;9.152;2023-08-20T00:44:58;21.40;99.90
947;DHT22;460;48.734;9.152;2023-08-20T00:47:25;21.40;99.90
947;DHT22;460;48.734;9.152;2023-08-20T00:49:52;21.30;99.90
947;DHT22;460;48.734;9.152;2023-08-20T00:52:20;21.30;99.90
947;DHT22;460;48.734;9.152;2023-08-20T00:54:48;21.30;99.90
947;DHT22;460;48.734;9.152;2023-08-20T00:57:15;21.30;99.90
947;DHT22;460;48.734;9.152;2023-08-20T00:59:44;21.30;99.90
947;DHT22;460;48.734;9.152;2023-08-20T01:02:15;21.30;99.90
947;DHT22;460;48.734;9.152;2023-08-20T01:04:42;21.40;99.90
947;DHT22;460;48.734;9.152;2023-08-20T01:07:17;21.40;99.90
947;DHT22;460;48.734;9.152;2023-08-20T01:09:50;21.20;99.90
947;DHT22;460;48.734;9.152;2023-08-20T01:12:20;21.10;99.90
947;DHT22;460;48.734;9.152;2023-08-20T01:14:50;21.20;99.90
947;DHT22;460;48.734;9.152;2023-08-20T01:17:18;21.10;99.90
947;DHT22;460;48.734;9.152;2023-08-20T01:19:46;21.20;99.90
947;DHT22;460;48.734;9.152;2023-08-20T01:22:29;21.20;99.90
947;DHT22;460;48.734;9.152;2023-08-20T01:25:07;21.20;99.90
947;DHT22;460;48.734;9.152;2023-08-20T01:27:43;21.10;99.90
947;DHT22;460;48.734;9.152;2023-08-20T01:30:16;21.10;99.90
947;DHT22;460;48.734;9.152;2023-08-20T01:32:44;21.10;99.90
947;DHT22;460;48.734;9.152;2023-08-20T01:35:13;21.10;99.90
947;DHT22;460;48.734;9.152;2023-08-20T01:37:41;21.10;99.90
947;DHT22;460;48.734;9.152;2023-08-20T01:40:10;21.20;99.90
947;DHT22;460;48.734;9.152;2023-08-20T01:42:39;21.10;99.90
947;DHT22;460;48.734;9.152;2023-08-20T01:45:07;21.10;99.90
947;DHT22;460;48.734;9.152;2023-08-20T01:47:37;21.00;99.90
947;DHT22;460;48.734;9.152;2023-08-20T01:50:05;21.00;99.90
947;DHT22;460;48.734;9.152;2023-08-20T01:52:33;21.00;99.90
947;DHT22;460;48.734;9.152;2023-08-20T01:55:01;21.00;99.90
947;DHT22;460;48.734;9.152;2023-08-20T01:57:29;21.00;99.90
947;DHT22;460;48.734;9.152;2023-08-20T01:59:58;20.90;99.90
947;DHT22;460;48.734;9.152;2023-08-20T02:02:26;20.90;99.90
947;DHT22;460;48.734;9.152;2023-08-20T02:04:55;20.80;99.90
947;DHT22;460;48.734;9.152;2023-08-20T02:07:22;20.90;99.90
947;DHT22;460;48.734;9.152;2023-08-20T02:09:48;20.90;99.90
947;DHT22;460;48.734;9.152;2023-08-20T02:12:15;20.80;99.90
947;DHT22;460;48.734;9.152;2023-08-20T02:14:42;20.80;99.90
947;DHT22;460;48.734;9.152;2023-08-20T02:17:12;20.90;99.90
947;DHT22;460;48.734;9.152;2023-08-20T02:19:39;20.90;99.90
947;DHT22;460;48.734;9.152;2023-08-20T02:22:09;20.80;99.90
947;DHT22;460;48.734;9.152;2023-08-20T02:24:37;20.80;99.90
947;DHT22;460;48.734;9.152;2023-08-20T02:27:05;20.70;99.90
947;DHT22;460;48.734;9.152;2023-08-20T02:29:34;20.70;99.90
947;DHT22;460;48.734;9.152;2023-08-20T02:32:02;20.70;99.90
947;DHT22;460;48.734;9.152;2023-08-20T02:34:29;20.70;99.90
947;DHT22;460;48.734;9.152;2023-08-20T02:36:56;20.70;99.90
947;DHT22;460;48.734;9.152;2023-08-20T02:39:25;20.60;99.90
947;DHT22;460;48.734;9.152;2023-08-20T02:41:52;20.60;99.90
947;DHT22;460;48.734;9.152;2023-08-20T02:44:20;20.70;99.90
947;DHT22;460;48.734;9.152;2023-08-20T02:46:48;20.70;99.90
947;DHT22;460;48.734;9.152;2023-08-20T02:49:15;20.70;99.90
947;DHT22;460;48.734;9.152;2023-08-20T02:51:43;20.70;99.90
947;DHT22;460;48.734;9.152;2023-08-20T02:54:11;20.60;99.90
947;DHT22;460;48.734;9.152;2023-08-20T02:56:40;20.60;99.90
947;DHT22;460;48.734;9.152;2023-08-20T02:59:08;20.60;99.90
947;DHT22;460;48.734;9.152;2023-08-20T03:01:36;20.50;99.90
947;DHT22;460;48.734;9.152;2023-08-20T03:04:04;20.60;99.90
947;DHT22;460;48.734;9.152;2023-08-20T03:06:33;20.60;99.90
947;DHT22;460;48.734;9.152;2023-08-20T03:09:00;20.60;99.90
947;DHT22;460;48.734;9.152;2023-08-20T03:11:30;20.70;99.90
947;DHT22;460;48.734;9.152;2023-08-20T03:13:58;20.60;99.90
947;DHT22;460;48.734;9.152;2023-08-20T03:16:25;20.60;99.90
947;DHT22;460;48.734;9.152;2023-08-20T03:18:52;20.60;99.90
947;DHT22;460;48.734;9.152;2023-08-20T03:21:19;20.60;99.90
947;DHT22;460;48.734;9.152;2023-08-20T03:23:46;20.60;99.90
947;DHT22;460;48.734;9.152;2023-08-20T03:26:12;20.60;99.90
947;DHT22;460;48.734;9.152;2023-08-20T03:28:39;20.50;99.90
947;DHT22;460;48.734;9.152;2023-08-20T03:31:07;20.50;99.90
947;DHT22;460;48.734;9.152;2023-08-20T03:33:34;20.40;99.90
947;DHT22;460;48.734;9.152;2023-08-20T03:36:01;20.40;99.90
947;DHT22;460;48.734;9.152;2023-08-20T03:38:28;20.40;99.90
947;DHT22;460;48.734;9.152;2023-08-20T03:40:55;20.40;99.90
947;DHT22;460;48.734;9.152;2023-08-20T03:43:21;20.40;99.90
947;DHT22;460;48.734;9.152;2023-08-20T03:45:50;20.40;99.90
947;DHT22;460;48.734;9.152;2023-08-20T03:48:18;20.50;99.90
947;DHT22;460;48.734;9.152;2023-08-20T03:50:45;20.50;99.90
947;DHT22;460;48.734;9.152;2023-08-20T03:53:12;20.50;99.90
947;DHT22;460;48.734;9.152;2023-08-20T03:55:39;20.40;99.90
947;DHT22;460;48.734;9.152;2023-08-20T03:58:06;20.40;99.90
947;DHT22;460;48.734;9.152;2023-08-20T04:00:34;20.30;99.90
947;DHT22;460;48.734;9.152;2023-08-20T04:03:02;20.20;99.90
947;DHT22;460;48.734;9.152;2023-08-20T04:05:35;20.30;99.90
947;DHT22;460;48.734;9.152;2023-08-20T04:08:03;20.30;99.90
947;DHT22;460;48.734;9.152;2023-08-20T04:10:29;20.20;99.90
947;DHT22;460;48.734;9.152;2023-08-20T04:12:56;20.20;99.90
947;DHT22;460;48.734;9.152;2023-08-20T04:15:23;20.20;99.90
947;DHT22;460;48.734;9.152;2023-08-20T04:17:50;20.10;99.90
947;DHT22;460;48.734;9.152;2023-08-20T04:20:17;20.10;99.90
947;DHT22;460;48.734;9.152;2023-08-20T04:22:45;20.10;99.90
947;DHT22;460;48.734;9.152;2023-08-20T04:25:12;20.20;99.90
947;DHT22;460;48.734;9.152;2023-08-20T04:27:39;20.30;99.90
947;DHT22;460;48.734;9.152;2023-08-20T04:30:07;20.20;99.90
947;DHT22;460;48.734;9.152;2023-08-20T04:32:34;20.20;99.90
947;DHT22;460;48.734;9.152;2023-08-20T04:35:00;20.10;99.90
947;DHT22;460;48.734;9.152;2023-08-20T04:37:27;20.00;99.90
947;DHT22;460;48.734;9.152;2023-08-20T04:39:55;20.00;99.90
947;DHT22;460;48.734;9.152;2023-08-20T04:42:22;20.00;99.90
947;DHT22;460;48.734;9.152;2023-08-20T04:44:49;20.00;99.90
947;DHT22;460;48.734;9.152;2023-08-20T04:47:16;20.00;99.90
947;DHT22;460;48.734;9.152;2023-08-20T04:49:43;20.00;99.90
947;DHT22;460;48.734;9.152;2023-08-20T04:52:10;20.10;99.90
947;DHT22;460;48.734;9.152;2023-08-20T04:54:37;20.00;99.90
947;DHT22;460;48.734;9.152;2023-08-20T04:57:05;20.00;99.90
947;DHT22;460;48.734;9.152;2023-08-20T04:59:32;20.00;99.90
947;DHT22;460;48.734;9.152;2023-08-20T05:01:58;20.10;99.90
947;DHT22;460;48.734;9.152;2023-08-20T05:04:25;20.10;99.90
947;DHT22;460;48.734;9.152;2023-08-20T05:06:52;20.00;99.90
947;DHT22;460;48.734;9.152;2023-08-20T05:09:19;20.10;99.90
947;DHT22;460;48.734;9.152;2023-08-20T05:11:46;20.10;99.90
947;DHT22;460;48.734;9.152;2023-08-20T05:14:16;20.10;99.90
947;DHT22;460;48.734;9.152;2023-08-20T05:16:42;20.20;99.90
947;DHT22;460;48.734;9.152;2023-08-20T05:19:09;20.30;99.90
947;DHT22;460;48.734;9.152;2023-08-20T05:21:36;20.30;99.90
947;DHT22;460;48.734;9.152;2023-08-20T05:24:03;20.50;99.90
947;DHT22;460;48.734;9.152;2023-08-20T05:26:30;20.70;99.90
947;DHT22;460;48.734;9.152;2023-08-20T05:28:57;20.70;99.90
947;DHT22;460;48.734;9.152;2023-08-20T05:31:25;20.80;99.90
947;DHT22;460;48.734;9.152;2023-08-20T05:33:52;20.90;99.90
947;DHT22;460;48.734;9.152;2023-08-20T05:36:19;20.80;99.90
947;DHT22;460;48.734;9.152;2023-08-20T05:38:45;20.80;99.90
947;DHT22;460;48.734;9.152;2023-08-20T05:41:12;20.80;99.90
947;DHT22;460;48.734;9.152;2023-08-20T05:43:39;20.70;99.90
947;DHT22;460;48.734;9.152;2023-08-20T05:46:06;20.70;99.90
947;DHT22;460;48.734;9.152;2023-08-20T05:48:34;20.80;99.90
947;DHT22;460;48.734;9.152;2023-08-20T05:51:00;20.80;99.90
947;DHT22;460;48.734;9.152;2023-08-20T05:53:28;21.00;99.90
947;DHT22;460;48.734;9.152;2023-08-20T05:55:54;21.00;99.90
947;DHT22;460;48.734;9.152;2023-08-20T05:58:21;21.00;99.90
947;DHT22;460;48.734;9.152;2023-08-20T06:00:48;21.20;99.90
947;DHT22;460;48.734;9.152;2023-08-20T06:03:15;21.30;99.90
947;DHT22;460;48.734;9.152;2023-08-20T06:05:43;21.50;99.90
947;DHT22;460;48.734;9.152;2023-08-20T06:08:10;21.70;99.90
947;DHT22;460;48.734;9.152;2023-08-20T06:10:36;21.80;99.90
947;DHT22;460;48.734;9.152;2023-08-20T06:13:03;22.00;99.90
947;DHT22;460;48.734;9.152;2023-08-20T06:15:30;22.00;99.90
947;DHT22;460;48.734;9.152;2023-08-20T06:17:57;22.10;99.90
947;DHT22;460;48.734;9.152;2023-08-20T06:20:24;22.40;99.90
947;DHT22;460;48.734;9.152;2023-08-20T06:22:52;22.70;99.90
947;DHT22;460;48.734;9.152;2023-08-20T06:25:19;22.80;99.90
947;DHT22;460;48.734;9.152;2023-08-20T06:27:46;22.90;99.90
947;DHT22;460;48.734;9.152;2023-08-20T06:30:13;22.90;99.90
947;DHT22;460;48.734;9.152;2023-08-20T06:32:39;22.80;99.90
947;DHT22;460;48.734;9.152;2023-08-20T06:35:07;22.90;99.90
947;DHT22;460;48.734;9.152;2023-08-20T06:37:35;22.90;99.90
947;DHT22;460;48.734;9.152;2023-08-20T06:40:05;22.90;99.90
947;DHT22;460;48.734;9.152;2023-08-20T06:42:32;23.00;99.90
947;DHT22;460;48.734;9.152;2023-08-20T06:44:58;23.20;99.90
947;DHT22;460;48.734;9.152;2023-08-20T06:47:25;23.20;99.90
947;DHT22;460;48.734;9.152;2023-08-20T06:49:52;23.30;99.90
947;DHT22;460;48.734;9.152;2023-08-20T06:52:19;23.70;99.90
947;DHT22;460;48.734;9.152;2023-08-20T06:54:46;23.80;99.90
947;DHT22;460;48.734;9.152;2023-08-20T06:57:14;23.50;99.90
947;DHT22;460;48.734;9.152;2023-08-20T06:59:41;23.70;99.90
947;DHT22;460;48.734;9.152;2023-08-20T07:02:09;23.70;99.90
947;DHT22;460;48.734;9.152;2023-08-20T07:04:36;23.70;99.90
947;DHT22;460;48.734;9.152;2023-08-20T07:07:03;23.80;99.90
947;DHT22;460;48.734;9.152;2023-08-20T07:09:31;24.00;99.90
947;DHT22;460;48.734;9.152;2023-08-20T07:11:58;24.20;99.90
947;DHT22;460;48.734;9.152;2023-08-20T07:14:28;24.10;99.90
947;DHT22;460;48.734;9.152;2023-08-20T07:16:58;24.10;99.90
947;DHT22;460;48.734;9.152;2023-08-20T07:19:32;24.20;99.90
947;DHT22;460;48.734;9.152;2023-08-20T07:22:11;24.30;99.90
947;DHT22;460;48.734;9.152;2023-08-20T07:24:45;24.50;99.90
947;DHT22;460;48.734;9.152;2023-08-20T07:27:19;24.50;99.90
947;DHT22;460;48.734;9.152;2023-08-20T07:29:50;24.80;99.90
947;DHT22;460;48.734;9.152;2023-08-20T07:32:17;24.80;99.90
947;DHT22;460;48.734;9.152;2023-08-20T07:34:44;24.70;99.90
947;DHT22;460;48.734;9.152;2023-08-20T07:37:11;24.60;99.90
947;DHT22;460;48.734;9.152;2023-08-20T07:39:37;24.80;99.90
947;DHT22;460;48.734;9.152;2023-08-20T07:42:06;24.90;99.90
947;DHT22;460;48.734;9.152;2023-08-20T07:44:33;25.00;99.90
947;DHT22;460;48.734;9.152;2023-08-20T07:47:01;25.10;99.90
947;DHT22;460;48.734;9.152;2023-08-20T07:49:28;25.20;99.90
947;DHT22;460;48.734;9.152;2023-08-20T07:51:55;25.20;99.90
947;DHT22;460;48.734;9.152;2023-08-20T07:54:22;25.30;99.90
947;DHT22;460;48.734;9.152;2023-08-20T07:56:49;25.30;99.90
947;DHT22;460;48.734;9.152;2023-08-20T07:59:16;25.20;99.90
947;DHT22;460;48.734;9.152;2023-08-20T08:01:43;25.20;99.90
947;DHT22;460;48.734;9.152;2023-08-20T08:04:11;25.40;99.90
947;DHT22;460;48.734;9.152;2023-08-20T08:06:38;25.70;99.90
947;DHT22;460;48.734;9.152;2023-08-20T08:09:27;25.70;99.90
947;DHT22;460;48.734;9.152;2023-08-20T08:11:54;26.00;99.90
947;DHT22;460;48.734;9.152;2023-08-20T08:14:21;26.10;99.90
947;DHT22;460;48.734;9.152;2023-08-20T08:16:49;26.20;99.90
947;DHT22;460;48.734;9.152;2023-08-20T08:19:18;26.60;99.90
947;DHT22;460;48.734;9.152;2023-08-20T08:21:46;26.80;99.90
947;DHT22;460;48.734;9.152;2023-08-20T08:24:14;26.90;99.90
947;DHT22;460;48.734;9.152;2023-08-20T08:26:41;27.00;99.90
947;DHT22;460;48.734;9.152;2023-08-20T08:29:08;27.00;99.90
947;DHT22;460;48.734;9.152;2023-08-20T08:31:35;26.80;99.90
947;DHT22;460;48.734;9.152;2023-08-20T08:34:02;26.90;99.90
947;DHT22;460;48.734;9.152;2023-08-20T08:36:31;26.60;99.90
947;DHT22;460;48.734;9.152;2023-08-20T08:38:57;26.50;99.90
947;DHT22;460;48.734;9.152;2023-08-20T08:41:25;26.50;99.90
947;DHT22;460;48.734;9.152;2023-08-20T08:43:53;26.60;99.90
947;DHT22;460;48.734;9.152;2023-08-20T08:46:23;26.60;99.90
947;DHT22;460;48.734;9.152;2023-08-20T08:48:50;26.70;99.90
947;DHT22;460;48.734;9.152;2023-08-20T08:51:18;26.70;99.90
947;DHT22;460;48.734;9.152;2023-08-20T08:53:46;27.00;99.90
947;DHT22;460;48.734;9.152;2023-08-20T08:56:13;27.20;99.90
947;DHT22;460;48.734;9.152;2023-08-20T08:58:40;27.30;99.60
947;DHT22;460;48.734;9.152;2023-08-20T09:01:09;27.00;99.30
947;DHT22;460;48.734;9.152;2023-08-20T09:03:36;27.00;99.40
947;DHT22;460;48.734;9.152;2023-08-20T09:06:08;27.10;99.50
947;DHT22;460;48.734;9.152;2023-08-20T09:08:35;27.40;98.90
947;DHT22;460;48.734;9.152;2023-08-20T09:11:04;27.40;98.50
947;DHT22;460;48.734;9.152;2023-08-20T09:13:35;27.50;98.50
947;DHT22;460;48.734;9.152;2023-08-20T09:16:06;27.30;98.20
947;DHT22;460;48.734;9.152;2023-08-20T09:18:37;27.20;98.30
947;DHT22;460;48.734;9.152;2023-08-20T09:21:06;27.20;98.60
947;DHT22;460;48.734;9.152;2023-08-20T09:23:34;27.30;98.10
947;DHT22;460;48.734;9.152;2023-08-20T09:26:02;27.30;98.10
947;DHT22;460;48.734;9.152;2023-08-20T09:28:40;27.50;98.20
947;DHT22;460;48.734;9.152;2023-08-20T09:31:08;27.40;98.10
947;DHT22;460;48.734;9.152;2023-08-20T09:33:34;27.60;98.10
947;DHT22;460;48.734;9.152;2023-08-20T09:36:03;27.70;97.70
947;DHT22;460;48.734;9.152;2023-08-20T09:38:30;28.00;97.80
947;DHT22;460;48.734;9.152;2023-08-20T09:41:03;28.00;96.60
947;DHT22;460;48.734;9.152;2023-08-20T09:43:33;28.10;95.50
947;DHT22;460;48.734;9.152;2023-08-20T09:46:02;28.20;95.20
947;DHT22;460;48.734;9.152;2023-08-20T09:48:34;28.30;95.30
947;DHT22;460;48.734;9.152;2023-08-20T09:51:04;28.50;95.70
947;DHT22;460;48.734;9.152;2023-08-20T09:53:35;28.60;95.10
947;DHT22;460;48.734;9.152;2023-08-20T09:56:12;28.50;93.70
947;DHT22;460;48.734;9.152;2023-08-20T09:58:44;28.80;94.60
947;DHT22;460;48.734;9.152;2023-08-20T10:01:12;29.10;93.90
947;DHT22;460;48.734;9.152;2023-08-20T10:03:39;29.30;93.80
947;DHT22;460;48.734;9.152;2023-08-20T10:06:06;29.30;92.80
947;DHT22;460;48.734;9.152;2023-08-20T10:08:33;29.30;93.50
947;DHT22;460;48.734;9.152;2023-08-20T10:11:00;29.30;92.70
947;DHT22;460;48.734;9.152;2023-08-20T10:13:27;29.30;92.90
947;DHT22;460;48.734;9.152;2023-08-20T10:15:56;29.30;91.30
947;DHT22;460;48.734;9.152;2023-08-20T10:18:23;29.00;91.10
947;DHT22;460;48.734;9.152;2023-08-20T10:20:50;29.10;92.20
947;DHT22;460;48.734;9.152;2023-08-20T10:23:20;29.20;90.80
947;DHT22;460;48.734;9.152;2023-08-20T10:25:48;29.20;90.80
947;DHT22;460;48.734;9.152;2023-08-20T10:28:20;29.40;91.40
947;DHT22;460;48.734;9.152;2023-08-20T10:31:08;29.70;91.40
947;DHT22;460;48.734;9.152;2023-08-20T10:33:36;29.90;91.10
947;DHT22;460;48.734;9.152;2023-08-20T10:36:13;29.90;91.30
947;DHT22;460;48.734;9.152;2023-08-20T10:38:39;29.90;90.30
947;DHT22;460;48.734;9.152;2023-08-20T10:41:07;30.00;90.70
947;DHT22;460;48.734;9.152;2023-08-20T10:43:35;30.00;88.80
947;DHT22;460;48.734;9.152;2023-08-20T10:46:10;30.10;89.70
947;DHT22;460;48.734;9.152;2023-08-20T10:48:46;30.40;88.10
947;DHT22;460;48.734;9.152;2023-08-20T10:51:14;30.50;85.10
947;DHT22;460;48.734;9.152;2023-08-20T10:54:07;30.50;87.70
947;DHT22;460;48.734;9.152;2023-08-20T10:56:42;30.50;88.60
947;DHT22;460;48.734;9.152;2023-08-20T10:59:13;30.40;86.10
947;DHT22;460;48.734;9.152;2023-08-20T11:01:43;30.60;89.30
947;DHT22;460;48.734;9.152;2023-08-20T11:04:14;30.70;86.00
947;DHT22;460;48.734;9.152;2023-08-20T11:06:41;30.90;86.70
947;DHT22;460;48.734;9.152;2023-08-20T11:09:08;31.10;86.30
947;DHT22;460;48.734;9.152;2023-08-20T11:11:37;31.00;83.80
947;DHT22;460;48.734;9.152;2023-08-20T11:14:11;31.20;86.50
947;DHT22;460;48.734;9.152;2023-08-20T11:16:45;31.30;83.60
947;DHT22;460;48.734;9.152;2023-08-20T11:19:13;31.50;86.50
947;DHT22;460;48.734;9.152;2023-08-20T11:21:41;31.50;85.30
947;DHT22;460;48.734;9.152;2023-08-20T11:24:09;31.70;83.80
947;DHT22;460;48.734;9.152;2023-08-20T11:26:38;31.80;83.00
947;DHT22;460;48.734;9.152;2023-08-20T11:29:08;32.00;84.20
947;DHT22;460;48.734;9.152;2023-08-20T11:31:39;32.10;80.10
947;DHT22;460;48.734;9.152;2023-08-20T11:34:07;32.30;79.10
947;DHT22;460;48.734;9.152;2023-08-20T11:36:35;32.40;80.00
947;DHT22;460;48.734;9.152;2023-08-20T11:39:02;32.70;81.50
947;DHT22;460;48.734;9.152;2023-08-20T11:41:29;32.80;79.90
947;DHT22;460;48.734;9.152;2023-08-20T11:43:56;32.80;76.70
947;DHT22;460;48.734;9.152;2023-08-20T11:46:24;33.00;80.30
947;DHT22;460;48.734;9.152;2023-08-20T11:49:02;33.40;76.00
947;DHT22;460;48.734;9.152;2023-08-20T11:51:35;33.70;73.60
947;DHT22;460;48.734;9.152;2023-08-20T11:54:04;34.00;72.30
947;DHT22;460;48.734;9.152;2023-08-20T11:56:32;34.30;72.40
947;DHT22;460;48.734;9.152;2023-08-20T11:58:59;34.80;73.90
947;DHT22;460;48.734;9.152;2023-08-20T12:01:30;35.40;70.50
947;DHT22;460;48.734;9.152;2023-08-20T12:04:00;35.70;67.50
947;DHT22;460;48.734;9.152;2023-08-20T12:06:27;35.30;65.40
947;DHT22;460;48.734;9.152;2023-08-20T12:08:58;36.30;63.70
947;DHT22;460;48.734;9.152;2023-08-20T12:11:25;37.30;64.10
947;DHT22;460;48.734;9.152;2023-08-20T12:13:52;38.20;62.40
947;DHT22;460;48.734;9.152;2023-08-20T12:16:22;38.80;60.80
947;DHT22;460;48.734;9.152;2023-08-20T12:18:48;38.90;59.40
947;DHT22;460;48.734;9.152;2023-08-20T12:21:15;39.40;56.00
947;DHT22;460;48.734;9.152;2023-08-20T12:23:43;39.90;56.40
947;DHT22;460;48.734;9.152;2023-08-20T12:26:11;39.80;54.60
947;DHT22;460;48.734;9.152;2023-08-20T12:28:38;39.50;55.00
947;DHT22;460;48.734;9.152;2023-08-20T12:31:05;39.00;55.70
947;DHT22;460;48.734;9.152;2023-08-20T12:33:32;39.60;55.90
947;DHT22;460;48.734;9.152;2023-08-20T12:35:59;39.70;55.20
947;DHT22;460;48.734;9.152;2023-08-20T12:38:26;39.90;54.70
947;DHT22;460;48.734;9.152;2023-08-20T12:40:59;40.10;54.40
947;DHT22;460;48.734;9.152;2023-08-20T12:43:27;39.20;54.80
947;DHT22;460;48.734;9.152;2023-08-20T12:45:54;38.60;53.30
947;DHT22;460;48.734;9.152;2023-08-20T12:48:20;38.50;54.70
947;DHT22;460;48.734;9.152;2023-08-20T12:50:47;39.40;54.60
947;DHT22;460;48.734;9.152;2023-08-20T12:53:14;40.00;54.30
947;DHT22;460;48.734;9.152;2023-08-20T12:55:41;40.70;53.20
947;DHT22;460;48.734;9.152;2023-08-20T12:58:07;41.10;52.00
947;DHT22;460;48.734;9.152;2023-08-20T13:00:36;41.50;51.40
947;DHT22;460;48.734;9.152;2023-08-20T13:03:03;41.40;51.80
947;DHT22;460;48.734;9.152;2023-08-20T13:05:31;41.40;51.10
947;DHT22;460;48.734;9.152;2023-08-20T13:07:58;41.30;51.70
947;DHT22;460;48.734;9.152;2023-08-20T13:10:25;41.40;50.20
947;DHT22;460;48.734;9.152;2023-08-20T13:12:53;40.90;51.60
947;DHT22;460;48.734;9.152;2023-08-20T13:15:21;40.50;51.80
947;DHT22;460;48.734;9.152;2023-08-20T13:17:50;41.10;52.40
947;DHT22;460;48.734;9.152;2023-08-20T13:20:17;40.60;51.70
947;DHT22;460;48.734;9.152;2023-08-20T13:22:47;40.20;51.00
947;DHT22;460;48.734;9.152;2023-08-20T13:25:13;40.90;50.90
947;DHT22;460;48.734;9.152;2023-08-20T13:27:40;41.50;50.10
947;DHT22;460;48.734;9.152;2023-08-20T13:30:08;39.90;49.70
947;DHT22;460;48.734;9.152;2023-08-20T13:32:35;40.30;51.10
947;DHT22;460;48.734;9.152;2023-08-20T13:35:03;39.00;52.20
947;DHT22;460;48.734;9.152;2023-08-20T13:37:30;39.10;52.60
947;DHT22;460;48.734;9.152;2023-08-20T13:39:57;40.10;51.50
947;DHT22;460;48.734;9.152;2023-08-20T13:42:24;40.40;51.30
947;DHT22;460;48.734;9.152;2023-08-20T13:44:51;40.60;50.40
947;DHT22;460;48.734;9.152;2023-08-20T13:47:18;41.00;50.00
947;DHT22;460;48.734;9.152;2023-08-20T13:49:45;41.40;50.40
947;DHT22;460;48.734;9.152;2023-08-20T13:52:13;40.50;49.60
947;DHT22;460;48.734;9.152;2023-08-20T13:54:40;40.00;51.50
947;DHT22;460;48.734;9.152;2023-08-20T13:57:06;40.70;50.60
947;DHT22;460;48.734;9.152;2023-08-20T13:59:33;41.20;48.70
947;DHT22;460;48.734;9.152;2023-08-20T14:02:00;41.20;50.00
947;DHT22;460;48.734;9.152;2023-08-20T14:04:27;41.30;48.50
947;DHT22;460;48.734;9.152;2023-08-20T14:06:54;41.50;48.70
947;DHT22;460;48.734;9.152;2023-08-20T14:09:22;41.70;48.20
947;DHT22;460;48.734;9.152;2023-08-20T14:11:50;41.60;49.20
947;DHT22;460;48.734;9.152;2023-08-20T14:14:17;41.30;49.50
947;DHT22;460;48.734;9.152;2023-08-20T14:16:44;40.90;49.60
947;DHT22;460;48.734;9.152;2023-08-20T14:19:11;40.90;48.00
947;DHT22;460;48.734;9.152;2023-08-20T14:21:37;40.00;49.70
947;DHT22;460;48.734;9.152;2023-08-20T14:24:05;41.00;48.70
947;DHT22;460;48.734;9.152;2023-08-20T14:26:33;41.20;48.70
947;DHT22;460;48.734;9.152;2023-08-20T14:29:01;40.80;49.50
947;DHT22;460;48.734;9.152;2023-08-20T14:31:28;39.70;49.20
947;DHT22;460;48.734;9.152;2023-08-20T14:33:54;38.70;50.10
947;DHT22;460;48.734;9.152;2023-08-20T14:36:21;37.60;51.80
947;DHT22;460;48.734;9.152;2023-08-20T14:38:48;37.40;53.40
947;DHT22;460;48.734;9.152;2023-08-20T14:41:15;37.30;53.10
947;DHT22;460;48.734;9.152;2023-08-20T14:43:43;36.80;52.70
947;DHT22;460;48.734;9.152;2023-08-20T14:46:10;35.80;55.20
947;DHT22;460;48.734;9.152;2023-08-20T14:48:37;34.80;56.40
947;DHT22;460;48.734;9.152;2023-08-20T14:51:06;34.40;57.30
947;DHT22;460;48.734;9.152;2023-08-20T14:53:33;34.00;57.90
947;DHT22;460;48.734;9.152;2023-08-20T14:56:00;34.10;58.10
947;DHT22;460;48.734;9.152;2023-08-20T14:58:28;33.90;60.10
947;DHT22;460;48.734;9.152;2023-08-20T15:00:56;33.50;59.50
947;DHT22;460;48.734;9.152;2023-08-20T15:03:23;32.90;59.60
947;DHT22;460;48.734;9.152;2023-08-20T15:05:50;32.90;59.80
947;DHT22;460;48.734;9.152;2023-08-20T15:08:17;32.20;59.40
947;DHT22;460;48.734;9.152;2023-08-20T15:10:56;32.10;61.50
947;DHT22;460;48.734;9.152;2023-08-20T15:13:23;32.20;63.60
947;DHT22;460;48.734;9.152;2023-08-20T15:15:51;31.80;59.80
947;DHT22;460;48.734;9.152;2023-08-20T15:18:19;31.70;63.40
947;DHT22;460;48.734;9.152;2023-08-20T15:20:53;31.70;62.60
947;DHT22;460;48.734;9.152;2023-08-20T15:23:22;31.80;62.00
947;DHT22;460;48.734;9.152;2023-08-20T15:25:51;31.60;62.90
947;DHT22;460;48.734;9.152;2023-08-20T15:28:18;31.60;63.10
947;DHT22;460;48.734;9.152;2023-08-20T15:30:45;31.50;62.50
947;DHT22;460;48.734;9.152;2023-08-20T15:33:12;31.50;63.40
947;DHT22;460;48.734;9.152;2023-08-20T15:35:41;31.50;63.00
947;DHT22;460;48.734;9.152;2023-08-20T15:38:08;31.50;62.80
947;DHT22;460;48.734;9.152;2023-08-20T15:40:35;31.40;63.50
947;DHT22;460;48.734;9.152;2023-08-20T15:43:02;31.10;62.30
947;DHT22;460;48.734;9.152;2023-08-20T15:45:29;31.20;64.40
947;DHT22;460;48.734;9.152;2023-08-20T15:47:56;31.20;65.40
947;DHT22;460;48.734;9.152;2023-08-20T15:50:23;31.10;64.30
947;DHT22;460;48.734;9.152;2023-08-20T15:52:51;31.00;63.00
947;DHT22;460;48.734;9.152;2023-08-20T15:55:18;30.60;62.50
947;DHT22;460;48.734;9.152;2023-08-20T15:57:45;30.50;64.40
947;DHT22;460;48.734;9.152;2023-08-20T16:00:12;30.90;64.10
947;DHT22;460;48.734;9.152;2023-08-20T16:02:42;30.80;63.90
947;DHT22;460;48.734;9.152;2023-08-20T16:05:09;30.70;63.70
947;DHT22;460;48.734;9.152;2023-08-20T16:07:36;30.80;64.30
947;DHT22;460;48.734;9.152;2023-08-20T16:10:06;31.00;64.50
947;DHT22;460;48.734;9.152;2023-08-20T16:12:33;31.00;64.60
947;DHT22;460;48.734;9.152;2023-08-20T16:15:00;31.00;64.60
947;DHT22;460;48.734;9.152;2023-08-20T16:17:27;31.00;65.80
947;DHT22;460;48.734;9.152;2023-08-20T16:19:54;31.00;65.30
947;DHT22;460;48.734;9.152;2023-08-20T16:22:20;31.10;65.80
947;DHT22;460;48.734;9.152;2023-08-20T16:24:47;31.00;65.80
947;DHT22;460;48.734;9.152;2023-08-20T16:27:15;30.90;65.00
947;DHT22;460;48.734;9.152;2023-08-20T16:29:42;31.00;64.50
947;DHT22;460;48.734;9.152;2023-08-20T16:32:09;31.20;64.20
947;DHT22;460;48.734;9.152;2023-08-20T16:34:36;31.20;65.00
947;DHT22;460;48.734;9.152;2023-08-20T16:37:03;31.20;63.30
947;DHT22;460;48.734;9.152;2023-08-20T16:39:29;31.30;67.10